Time;durP1;ratioP1;P1;durP2;ratioP2;P2;SDS_P1;SDS_P2;PMS_P1;PMS_P2;Temp;Humidity;BMP_temperature;BMP_pressure;BME280_temperature;BME280_humidity;BME280_pressure;Samples;Min_cycle;Max_cycle;Signal;HPM_P1;HPM_P2
2023/12/31 00:02:23;;;;;;;;;;;;;;;;;;5125060;28;19922;-59
2023/12/31 00:04:54;;;;;;;;;;;;;;;;;;5141401;28;19922;-59
2023/12/31 00:07:26;;;;;;;;;;;;;;;;;;5125922;28;19918;-59
2023/12/31 00:09:57;;;;;;;;;;;;;;;;;;5127157;28;19929;-60
2023/12/31 00:12:32;;;;;;;;;;;;;;;;;;5125461;28;19948;-60
2023/12/31 00:15:04;;;;;;;;;;;;;;;;;;5124807;28;21622;-60
2023/12/31 00:17:35;;;;;;;;;;;;;;;;;;5141035;28;19918;-60
2023/12/31 00:20:06;;;;;;;;;;;;;;;;;;5140635;28;19925;-60
2023/12/31 00:22:37;;;;;;;;;;;;;;;;;;5140869;28;20334;-59
2023/12/31 00:25:08;;;;;;;;;;;;;;;;;;5153850;28;19921;-59
2023/12/31 00:27:41;;;;;;;;;;;;;;;;;;5140923;28;20439;-60
2023/12/31 00:30:12;;;;;;;;;;;;;;;;;;5141242;28;19922;-59
2023/12/31 00:32:43;;;;;;;;;;;;;;;;;;5124136;28;19924;-60
2023/12/31 00:35:14;;;;;;;;;;;;;;;;;;5124339;28;20349;-61
2023/12/31 00:37:46;;;;;;;;;;;;;;;;;;5124386;28;19929;-61
2023/12/31 00:40:17;;;;;;;;;;;;;;;;;;5140716;28;19922;-60
2023/12/31 00:42:48;;;;;;;;;;;;;;;;;;5143612;28;20266;-59
2023/12/31 00:45:19;;;;;;;;;;;;;;;;;;5141340;28;19981;-62
2023/12/31 00:47:50;;;;;;;;;;;;;;;;;;5125042;28;20373;-61
2023/12/31 00:50:21;;;;;;;;;;;;;;;;;;5146728;28;19914;-61
2023/12/31 00:52:52;;;;;;;;;;;;;;;;;;5140957;28;19921;-59
2023/12/31 00:55:23;;;;;;;;;;;;;;;;;;5141269;28;19989;-60
2023/12/31 00:57:54;;;;;;;;;;;;;;;;;;5141191;28;19918;-61
2023/12/31 01:00:25;;;;;;;;;;;;;;;;;;5140782;28;20400;-60
2023/12/31 01:02:56;;;;;;;;;;;;;;;;;;5141399;28;20436;-60
2023/12/31 01:05:27;;;;;;;;;;;;;;;;;;5141046;28;19922;-59
2023/12/31 01:07:58;;;;;;;;;;;;;;;;;;5124699;28;20392;-59
2023/12/31 01:10:29;;;;;;;;;;;;;;;;;;5124951;28;19925;-59
2023/12/31 01:13:00;;;;;;;;;;;;;;;;;;5125261;28;20008;-59
2023/12/31 01:15:31;;;;;;;;;;;;;;;;;;5140985;28;20096;-60
2023/12/31 01:18:02;;;;;;;;;;;;;;;;;;5140636;28;19918;-60
2023/12/31 01:20:33;;;;;;;;;;;;;;;;;;5141436;28;20052;-60
2023/12/31 01:23:04;;;;;;;;;;;;;;;;;;5140480;28;19992;-60
2023/12/31 01:25:35;;;;;;;;;;;;;;;;;;5143042;28;19932;-60
2023/12/31 01:28:06;;;;;;;;;;;;;;;;;;5128787;28;20005;-59
2023/12/31 01:30:37;;;;;;;;;;;;;;;;;;5128806;28;20322;-60
2023/12/31 01:33:08;;;;;;;;;;;;;;;;;;5128554;28;19922;-60
2023/12/31 01:35:39;;;;;;;;;;;;;;;;;;5144604;28;19981;-60
2023/12/31 01:38:10;;;;;;;;;;;;;;;;;;5144484;28;20301;-60
2023/12/31 01:40:41;;;;;;;;;;;;;;;;;;5144873;28;19964;-60
2023/12/31 01:43:12;;;;;;;;;;;;;;;;;;5144486;28;20393;-60
2023/12/31 01:45:43;;;;;;;;;;;;;;;;;;5144658;28;19918;-60
2023/12/31 01:48:15;;;;;;;;;;;;;;;;;;5144986;28;20341;-60
2023/12/31 01:50:46;;;;;;;;;;;;;;;;;;5144743;28;20511;-58
2023/12/31 01:53:17;;;;;;;;;;;;;;;;;;5128520;28;19922;-59
2023/12/31 01:55:48;;;;;;;;;;;;;;;;;;5131531;28;20301;-58
2023/12/31 01:58:18;;;;;;;;;;;;;;;;;;5144402;28;19925;-59
2023/12/31 02:00:50;;;;;;;;;;;;;;;;;;5143991;28;19953;-59
2023/12/31 02:03:21;;;;;;;;;;;;;;;;;;5147541;28;19926;-59
2023/12/31 02:05:52;;;;;;;;;;;;;;;;;;5128336;28;19918;-59
2023/12/31 02:08:23;;;;;;;;;;;;;;;;;;5127379;28;19926;-59
2023/12/31 02:10:54;;;;;;;;;;;;;;;;;;5144130;28;19967;-59
2023/12/31 02:13:25;;;;;;;;;;;;;;;;;;5144229;28;19933;-59
2023/12/31 02:15:56;;;;;;;;;;;;;;;;;;5127971;28;20329;-59
2023/12/31 02:18:28;;;;;;;;;;;;;;;;;;5143793;28;20394;-59
2023/12/31 02:20:59;;;;;;;;;;;;;;;;;;5128348;28;20361;-59
2023/12/31 02:23:30;;;;;;;;;;;;;;;;;;5144030;28;19977;-59
2023/12/31 02:26:01;;;;;;;;;;;;;;;;;;5128388;28;19918;-59
2023/12/31 02:28:33;;;;;;;;;;;;;;;;;;5127972;28;19980;-58
2023/12/31 02:31:04;;;;;;;;;;;;;;;;;;5127750;28;20289;-59
2023/12/31 02:33:35;;;;;;;;;;;;;;;;;;5128040;28;19918;-59
2023/12/31 02:36:06;;;;;;;;;;;;;;;;;;5145436;28;20396;-59
2023/12/31 02:38:37;;;;;;;;;;;;;;;;;;5154674;28;20368;-59
2023/12/31 02:41:08;;;;;;;;;;;;;;;;;;5143321;28;19918;-59
2023/12/31 02:43:39;;;;;;;;;;;;;;;;;;5143955;28;19965;-59
2023/12/31 02:46:10;;;;;;;;;;;;;;;;;;5144358;28;19956;-59
2023/12/31 02:48:41;;;;;;;;;;;;;;;;;;5143370;28;19918;-60
2023/12/31 02:51:12;;;;;;;;;;;;;;;;;;5127319;28;20020;-59
2023/12/31 02:53:43;;;;;;;;;;;;;;;;;;5127215;28;19926;-59
2023/12/31 02:56:14;;;;;;;;;;;;;;;;;;5143759;28;20013;-59
2023/12/31 02:58:45;;;;;;;;;;;;;;;;;;5143096;28;19918;-60
2023/12/31 03:01:16;;;;;;;;;;;;;;;;;;5143442;28;20384;-60
2023/12/31 03:03:47;;;;;;;;;;;;;;;;;;5155990;28;19922;-60
2023/12/31 03:06:18;;;;;;;;;;;;;;;;;;5143560;28;19925;-59
2023/12/31 03:08:49;;;;;;;;;;;;;;;;;;5142763;28;19922;-59
2023/12/31 03:11:20;;;;;;;;;;;;;;;;;;5127136;28;20357;-59
2023/12/31 03:13:51;;;;;;;;;;;;;;;;;;5141403;28;20157;-59
2023/12/31 03:16:24;;;;;;;;;;;;;;;;;;5143363;28;19970;-59
2023/12/31 03:18:55;;;;;;;;;;;;;;;;;;5142024;28;20289;-59
2023/12/31 03:21:26;;;;;;;;;;;;;;;;;;5126969;28;19918;-59
2023/12/31 03:23:57;;;;;;;;;;;;;;;;;;5142363;28;19972;-59
2023/12/31 03:26:28;;;;;;;;;;;;;;;;;;5126669;28;19973;-60
2023/12/31 03:28:59;;;;;;;;;;;;;;;;;;5143041;28;20385;-59
2023/12/31 03:31:30;;;;;;;;;;;;;;;;;;5142338;28;19918;-59
2023/12/31 03:34:01;;;;;;;;;;;;;;;;;;5142821;28;20045;-59
2023/12/31 03:36:32;;;;;;;;;;;;;;;;;;5126543;28;19984;-59
2023/12/31 03:39:03;;;;;;;;;;;;;;;;;;5126977;28;20350;-59
2023/12/31 03:41:34;;;;;;;;;;;;;;;;;;5142776;28;20433;-59
2023/12/31 03:44:05;;;;;;;;;;;;;;;;;;5126473;28;20013;-59
2023/12/31 03:46:36;;;;;;;;;;;;;;;;;;5126071;28;20331;-59
2023/12/31 03:49:07;;;;;;;;;;;;;;;;;;5141582;28;20374;-59
2023/12/31 03:51:38;;;;;;;;;;;;;;;;;;5155232;28;19929;-60
2023/12/31 03:54:09;;;;;;;;;;;;;;;;;;5142305;28;19918;-59
2023/12/31 03:56:40;;;;;;;;;;;;;;;;;;5142038;28;20369;-59
2023/12/31 03:59:11;;;;;;;;;;;;;;;;;;5142395;28;19921;-59
2023/12/31 04:01:42;;;;;;;;;;;;;;;;;;5125886;28;20379;-59
2023/12/31 04:04:16;;;;;;;;;;;;;;;;;;5141771;28;19926;-59
2023/12/31 04:06:47;;;;;;;;;;;;;;;;;;5125862;28;19918;-58
2023/12/31 04:09:19;;;;;;;;;;;;;;;;;;5141734;28;19949;-59
2023/12/31 04:11:50;;;;;;;;;;;;;;;;;;5141921;28;19918;-59
2023/12/31 04:14:21;;;;;;;;;;;;;;;;;;5142451;28;20262;-59
2023/12/31 04:16:52;;;;;;;;;;;;;;;;;;5141706;28;19973;-58
2023/12/31 04:19:23;;;;;;;;;;;;;;;;;;5147537;28;19929;-58
2023/12/31 04:21:54;;;;;;;;;;;;;;;;;;5121666;28;20303;-59
2023/12/31 04:24:25;;;;;;;;;;;;;;;;;;5141670;28;19921;-60
2023/12/31 04:26:59;;;;;;;;;;;;;;;;;;5141827;28;20447;-59
2023/12/31 04:29:30;;;;;;;;;;;;;;;;;;5129795;28;19975;-60
2023/12/31 04:32:01;;;;;;;;;;;;;;;;;;5150564;28;19976;-60
2023/12/31 04:34:32;;;;;;;;;;;;;;;;;;5157601;28;19918;-60
2023/12/31 04:37:03;;;;;;;;;;;;;;;;;;5142126;28;19928;-59
2023/12/31 04:39:34;;;;;;;;;;;;;;;;;;5125812;28;19922;-59
2023/12/31 04:42:05;;;;;;;;;;;;;;;;;;5141354;28;20292;-59
2023/12/31 04:44:36;;;;;;;;;;;;;;;;;;5142616;28;19983;-60
2023/12/31 04:47:07;;;;;;;;;;;;;;;;;;5124971;28;19930;-59
2023/12/31 04:49:38;;;;;;;;;;;;;;;;;;5141576;28;19925;-60
2023/12/31 04:52:09;;;;;;;;;;;;;;;;;;5125000;28;19922;-60
2023/12/31 04:54:41;;;;;;;;;;;;;;;;;;5141929;28;19929;-60
2023/12/31 04:57:12;;;;;;;;;;;;;;;;;;5141383;28;19922;-59
2023/12/31 04:59:43;;;;;;;;;;;;;;;;;;5143899;28;20020;-59
2023/12/31 05:02:14;;;;;;;;;;;;;;;;;;5145546;28;19917;-60
2023/12/31 05:04:45;;;;;;;;;;;;;;;;;;5145406;28;19984;-60
2023/12/31 05:07:17;;;;;;;;;;;;;;;;;;5133054;28;19924;-60
2023/12/31 05:09:48;;;;;;;;;;;;;;;;;;5145308;28;20004;-60
2023/12/31 05:12:19;;;;;;;;;;;;;;;;;;5145057;28;19945;-60
2023/12/31 05:14:50;;;;;;;;;;;;;;;;;;5145499;28;19918;-60
2023/12/31 05:17:21;;;;;;;;;;;;;;;;;;5145185;28;20364;-60
2023/12/31 05:19:52;;;;;;;;;;;;;;;;;;5129483;28;20012;-61
2023/12/31 05:22:23;;;;;;;;;;;;;;;;;;5139711;28;19922;-60
2023/12/31 05:24:54;;;;;;;;;;;;;;;;;;5145961;28;19922;-60
2023/12/31 05:27:25;;;;;;;;;;;;;;;;;;5145470;28;19926;-59
2023/12/31 05:29:57;;;;;;;;;;;;;;;;;;5145173;28;19981;-59
2023/12/31 05:32:28;;;;;;;;;;;;;;;;;;5128869;28;19922;-59
2023/12/31 05:34:59;;;;;;;;;;;;;;;;;;5129007;28;19973;-59
2023/12/31 05:37:30;;;;;;;;;;;;;;;;;;5144953;28;19925;-59
2023/12/31 05:40:01;;;;;;;;;;;;;;;;;;5145208;28;19917;-60
2023/12/31 05:42:34;;;;;;;;;;;;;;;;;;5144995;28;19929;-60
2023/12/31 05:45:05;;;;;;;;;;;;;;;;;;5128817;28;20396;-59
2023/12/31 05:47:36;;;;;;;;;;;;;;;;;;5128616;28;20289;-59
2023/12/31 05:50:07;;;;;;;;;;;;;;;;;;5144607;28;19985;-60
2023/12/31 05:52:38;;;;;;;;;;;;;;;;;;5128987;28;19976;-60
2023/12/31 05:55:09;;;;;;;;;;;;;;;;;;5144453;28;20008;-60
2023/12/31 05:57:42;;;;;;;;;;;;;;;;;;5145268;28;19957;-60
2023/12/31 06:00:13;;;;;;;;;;;;;;;;;;5144301;28;20016;-60
2023/12/31 06:02:44;;;;;;;;;;;;;;;;;;5144592;28;20258;-60
2023/12/31 06:05:15;;;;;;;;;;;;;;;;;;5144230;28;19934;-60
2023/12/31 06:07:46;;;;;;;;;;;;;;;;;;5127635;28;19918;-60
2023/12/31 06:10:17;;;;;;;;;;;;;;;;;;5145944;28;19922;-60
2023/12/31 06:12:48;;;;;;;;;;;;;;;;;;5142730;28;19925;-60
2023/12/31 06:15:19;;;;;;;;;;;;;;;;;;5144631;28;20441;-60
2023/12/31 06:17:51;;;;;;;;;;;;;;;;;;5150026;28;20004;-60
2023/12/31 06:20:22;;;;;;;;;;;;;;;;;;5128293;28;19957;-60
2023/12/31 06:22:53;;;;;;;;;;;;;;;;;;5143532;28;19961;-59
2023/12/31 06:25:24;;;;;;;;;;;;;;;;;;5144341;28;19918;-61
2023/12/31 06:27:57;;;;;;;;;;;;;;;;;;5143933;28;19925;-60
2023/12/31 06:30:27;;;;;;;;;;;;;;;;;;5143922;28;19918;-60
2023/12/31 06:32:58;;;;;;;;;;;;;;;;;;5143377;28;20290;-60
2023/12/31 06:35:30;;;;;;;;;;;;;;;;;;5144246;28;20380;-60
2023/12/31 06:38:01;;;;;;;;;;;;;;;;;;5143540;28;19918;-60
2023/12/31 06:40:32;;;;;;;;;;;;;;;;;;5144064;28;20261;-59
2023/12/31 06:43:02;;;;;;;;;;;;;;;;;;5143366;28;19918;-59
2023/12/31 06:45:33;;;;;;;;;;;;;;;;;;5143097;28;20431;-59
2023/12/31 06:48:05;;;;;;;;;;;;;;;;;;5143700;28;20017;-58
2023/12/31 06:50:36;;;;;;;;;;;;;;;;;;5143330;28;19918;-58
2023/12/31 06:53:07;;;;;;;;;;;;;;;;;;5143805;28;20467;-59
2023/12/31 06:55:38;;;;;;;;;;;;;;;;;;5143460;28;19921;-60
2023/12/31 06:58:09;;;;;;;;;;;;;;;;;;5143169;28;20353;-60
2023/12/31 07:00:40;;;;;;;;;;;;;;;;;;5127141;28;19972;-60
2023/12/31 07:03:11;;;;;;;;;;;;;;;;;;5143028;28;19969;-60
2023/12/31 07:05:42;;;;;;;;;;;;;;;;;;5143788;28;19929;-60
2023/12/31 07:08:13;;;;;;;;;;;;;;;;;;5142799;28;20361;-60
2023/12/31 07:10:44;;;;;;;;;;;;;;;;;;5143162;28;20012;-60
2023/12/31 07:13:15;;;;;;;;;;;;;;;;;;5143090;28;20357;-60
2023/12/31 07:15:46;;;;;;;;;;;;;;;;;;5143554;28;19925;-60
2023/12/31 07:18:17;;;;;;;;;;;;;;;;;;5142926;28;19924;-60
2023/12/31 07:20:49;;;;;;;;;;;;;;;;;;5126602;28;20329;-61
2023/12/31 07:23:20;;;;;;;;;;;;;;;;;;5142500;28;19948;-60
2023/12/31 07:25:51;;;;;;;;;;;;;;;;;;5142708;28;19921;-60
2023/12/31 07:28:22;;;;;;;;;;;;;;;;;;5142998;28;19914;-60
2023/12/31 07:30:53;;;;;;;;;;;;;;;;;;5142547;28;19922;-59
2023/12/31 07:33:24;;;;;;;;;;;;;;;;;;5126903;28;19918;-58
2023/12/31 07:35:55;;;;;;;;;;;;;;;;;;5142305;28;19918;-58
2023/12/31 07:38:26;;;;;;;;;;;;;;;;;;5142567;28;19941;-59
2023/12/31 07:40:57;;;;;;;;;;;;;;;;;;5142393;28;19961;-59
2023/12/31 07:43:28;;;;;;;;;;;;;;;;;;5126092;28;20365;-58
2023/12/31 07:45:59;;;;;;;;;;;;;;;;;;5142293;28;19924;-59
2023/12/31 07:48:30;;;;;;;;;;;;;;;;;;5142415;28;20362;-59
2023/12/31 07:51:03;;;;;;;;;;;;;;;;;;5142533;28;20635;-58
2023/12/31 07:53:34;;;;;;;;;;;;;;;;;;5126319;28;20373;-58
2023/12/31 07:56:05;;;;;;;;;;;;;;;;;;5126235;28;19961;-58
2023/12/31 07:58:36;;;;;;;;;;;;;;;;;;5141954;28;19957;-58
2023/12/31 08:01:07;;;;;;;;;;;;;;;;;;5141029;28;19924;-58
2023/12/31 08:03:38;;;;;;;;;;;;;;;;;;5141174;28;19922;-59
2023/12/31 08:06:09;;;;;;;;;;;;;;;;;;5141905;28;20352;-61
2023/12/31 08:08:40;;;;;;;;;;;;;;;;;;5126315;28;20266;-60
2023/12/31 08:11:12;;;;;;;;;;;;;;;;;;5143141;28;20358;-59
2023/12/31 08:13:43;;;;;;;;;;;;;;;;;;5142511;28;20040;-60
2023/12/31 08:16:14;;;;;;;;;;;;;;;;;;5142140;28;20028;-60
2023/12/31 08:18:45;;;;;;;;;;;;;;;;;;5141496;28;19947;-60
2023/12/31 08:21:16;;;;;;;;;;;;;;;;;;5144727;28;19926;-60
2023/12/31 08:23:47;;;;;;;;;;;;;;;;;;5141969;28;19928;-60
2023/12/31 08:26:18;;;;;;;;;;;;;;;;;;5142299;28;19918;-60
2023/12/31 08:28:49;;;;;;;;;;;;;;;;;;5141205;28;19918;-60
2023/12/31 08:31:20;;;;;;;;;;;;;;;;;;5141158;28;20369;-61
2023/12/31 08:33:51;;;;;;;;;;;;;;;;;;5141735;28;19969;-59
2023/12/31 08:36:22;;;;;;;;;;;;;;;;;;5141395;28;19922;-58
2023/12/31 08:38:53;;;;;;;;;;;;;;;;;;5141053;28;19922;-59
2023/12/31 08:41:24;;;;;;;;;;;;;;;;;;5141494;28;19980;-62
2023/12/31 08:43:55;;;;;;;;;;;;;;;;;;5124912;28;19932;-60
2023/12/31 08:46:26;;;;;;;;;;;;;;;;;;5141452;28;19929;-60
2023/12/31 08:48:57;;;;;;;;;;;;;;;;;;5141340;28;19964;-59
2023/12/31 08:51:28;;;;;;;;;;;;;;;;;;5141513;28;20332;-61
2023/12/31 08:53:59;;;;;;;;;;;;;;;;;;5141274;28;19918;-61
2023/12/31 08:56:30;;;;;;;;;;;;;;;;;;5141134;28;19918;-61
2023/12/31 08:59:02;;;;;;;;;;;;;;;;;;5136657;28;20261;-61
2023/12/31 09:01:34;;;;;;;;;;;;;;;;;;5151616;28;20358;-61
2023/12/31 09:04:05;;;;;;;;;;;;;;;;;;5141185;28;19976;-60
2023/12/31 09:06:37;;;;;;;;;;;;;;;;;;5141169;28;19926;-61
2023/12/31 09:09:08;;;;;;;;;;;;;;;;;;5125404;28;20363;-60
2023/12/31 09:11:39;;;;;;;;;;;;;;;;;;5124893;28;20275;-60
2023/12/31 09:14:10;;;;;;;;;;;;;;;;;;5145749;28;19922;-62
2023/12/31 09:16:41;;;;;;;;;;;;;;;;;;5124824;28;19937;-60
2023/12/31 09:19:12;;;;;;;;;;;;;;;;;;5141401;28;19925;-61
2023/12/31 09:21:43;;;;;;;;;;;;;;;;;;5140932;28;19969;-60
2023/12/31 09:24:14;;;;;;;;;;;;;;;;;;5130384;28;20370;-59
2023/12/31 09:26:45;;;;;;;;;;;;;;;;;;5125231;28;19918;-61
2023/12/31 09:29:17;;;;;;;;;;;;;;;;;;5124478;28;19949;-59
2023/12/31 09:31:48;;;;;;;;;;;;;;;;;;5124419;28;19918;-58
2023/12/31 09:34:19;;;;;;;;;;;;;;;;;;5124202;28;19984;-58
2023/12/31 09:36:50;;;;;;;;;;;;;;;;;;5140608;28;19929;-59
2023/12/31 09:39:21;;;;;;;;;;;;;;;;;;5123841;28;19918;-58
2023/12/31 09:41:52;;;;;;;;;;;;;;;;;;5140105;28;19988;-59
2023/12/31 09:44:23;;;;;;;;;;;;;;;;;;5140133;28;20025;-59
2023/12/31 09:46:54;;;;;;;;;;;;;;;;;;5142934;28;19917;-60
2023/12/31 09:49:25;;;;;;;;;;;;;;;;;;5160220;28;20079;-59
2023/12/31 09:51:56;;;;;;;;;;;;;;;;;;5127833;28;19972;-60
2023/12/31 09:54:27;;;;;;;;;;;;;;;;;;5128593;28;19918;-60
2023/12/31 09:56:58;;;;;;;;;;;;;;;;;;5128284;28;19918;-60
2023/12/31 09:59:29;;;;;;;;;;;;;;;;;;5144473;28;19925;-60
2023/12/31 10:02:00;;;;;;;;;;;;;;;;;;5144848;28;19918;-59
2023/12/31 10:04:31;;;;;;;;;;;;;;;;;;5144532;28;20337;-59
2023/12/31 10:07:02;;;;;;;;;;;;;;;;;;5144438;28;20303;-58
2023/12/31 10:09:33;;;;;;;;;;;;;;;;;;5129194;28;19925;-58
2023/12/31 10:12:04;;;;;;;;;;;;;;;;;;5127109;28;19925;-59
2023/12/31 10:14:35;;;;;;;;;;;;;;;;;;5128032;28;20344;-63
2023/12/31 10:17:06;;;;;;;;;;;;;;;;;;5144007;28;19922;-60
2023/12/31 10:19:37;;;;;;;;;;;;;;;;;;5144805;28;19918;-58
2023/12/31 10:22:08;;;;;;;;;;;;;;;;;;5138145;28;20012;-59
2023/12/31 10:24:41;;;;;;;;;;;;;;;;;;5159470;28;19953;-58
2023/12/31 10:27:12;;;;;;;;;;;;;;;;;;5159924;28;19925;-58
2023/12/31 10:29:43;;;;;;;;;;;;;;;;;;5158256;28;19929;-59
2023/12/31 10:32:14;;;;;;;;;;;;;;;;;;5152337;28;19930;-58
2023/12/31 10:34:45;;;;;;;;;;;;;;;;;;5129207;28;19918;-59
2023/12/31 10:37:20;;;;;;;;;;;;;;;;;;5143809;28;19918;-59
2023/12/31 10:39:51;;;;;;;;;;;;;;;;;;5144182;28;19918;-60
2023/12/31 10:42:22;;;;;;;;;;;;;;;;;;5130889;28;20428;-59
2023/12/31 10:44:55;;;;;;;;;;;;;;;;;;5128005;28;20008;-61
2023/12/31 10:47:26;;;;;;;;;;;;;;;;;;5126980;28;19924;-60
2023/12/31 10:49:57;;;;;;;;;;;;;;;;;;5150850;28;19918;-60
2023/12/31 10:52:28;;;;;;;;;;;;;;;;;;5149728;28;19926;-59
2023/12/31 10:54:59;;;;;;;;;;;;;;;;;;5144678;28;19972;-60
2023/12/31 10:57:30;;;;;;;;;;;;;;;;;;5156583;28;20029;-59
2023/12/31 11:00:01;;;;;;;;;;;;;;;;;;5144399;28;19985;-59
2023/12/31 11:02:33;;;;;;;;;;;;;;;;;;5155060;28;20234;-58
2023/12/31 11:05:04;;;;;;;;;;;;;;;;;;5151482;28;19941;-58
2023/12/31 11:07:35;;;;;;;;;;;;;;;;;;5143152;28;19921;-60
2023/12/31 11:10:06;;;;;;;;;;;;;;;;;;5143242;28;20345;-59
2023/12/31 11:12:37;;;;;;;;;;;;;;;;;;5149976;28;19925;-57
2023/12/31 11:15:08;;;;;;;;;;;;;;;;;;5142952;28;19926;-59
2023/12/31 11:17:39;;;;;;;;;;;;;;;;;;5143025;28;19940;-58
2023/12/31 11:20:10;;;;;;;;;;;;;;;;;;5142708;28;19940;-60
2023/12/31 11:22:41;;;;;;;;;;;;;;;;;;5142385;28;20008;-58
2023/12/31 11:25:12;;;;;;;;;;;;;;;;;;5139028;28;19945;-58
2023/12/31 11:27:45;;;;;;;;;;;;;;;;;;5138194;28;20005;-58
2023/12/31 11:30:16;;;;;;;;;;;;;;;;;;5126241;28;19922;-57
2023/12/31 11:32:47;;;;;;;;;;;;;;;;;;5142431;28;19980;-58
2023/12/31 11:35:18;;;;;;;;;;;;;;;;;;5142194;28;19922;-58
2023/12/31 11:37:50;;;;;;;;;;;;;;;;;;5141933;28;19918;-57
2023/12/31 11:40:21;;;;;;;;;;;;;;;;;;5142687;28;19929;-58
2023/12/31 11:42:52;;;;;;;;;;;;;;;;;;5130781;28;19918;-58
2023/12/31 11:45:23;;;;;;;;;;;;;;;;;;5141889;28;19922;-58
2023/12/31 11:47:54;;;;;;;;;;;;;;;;;;5142370;28;19996;-58
2023/12/31 11:50:25;;;;;;;;;;;;;;;;;;5141833;28;20397;-58
2023/12/31 11:52:57;;;;;;;;;;;;;;;;;;5142613;28;19972;-58
2023/12/31 11:55:28;;;;;;;;;;;;;;;;;;5143372;28;19922;-59
2023/12/31 11:57:59;;;;;;;;;;;;;;;;;;5141960;28;20262;-59
2023/12/31 12:00:30;;;;;;;;;;;;;;;;;;5142057;28;19973;-59
2023/12/31 12:03:01;;;;;;;;;;;;;;;;;;5142092;28;19918;-59
2023/12/31 12:05:32;;;;;;;;;;;;;;;;;;5147403;28;19918;-58
2023/12/31 12:08:05;;;;;;;;;;;;;;;;;;5141265;28;20447;-60
2023/12/31 12:10:36;;;;;;;;;;;;;;;;;;5141458;28;19929;-58
2023/12/31 12:13:07;;;;;;;;;;;;;;;;;;5142150;28;19918;-58
2023/12/31 12:15:38;;;;;;;;;;;;;;;;;;5142369;28;20375;-58
2023/12/31 12:18:09;;;;;;;;;;;;;;;;;;5126133;28;19922;-58
2023/12/31 12:20:40;;;;;;;;;;;;;;;;;;5141728;28;19926;-59
2023/12/31 12:23:12;;;;;;;;;;;;;;;;;;5126492;28;19922;-59
2023/12/31 12:25:44;;;;;;;;;;;;;;;;;;5122172;28;19929;-57
2023/12/31 12:28:15;;;;;;;;;;;;;;;;;;5142106;28;19929;-57
2023/12/31 12:30:46;;;;;;;;;;;;;;;;;;5127670;28;19930;-59
2023/12/31 12:33:17;;;;;;;;;;;;;;;;;;5140725;28;19924;-59
2023/12/31 12:35:49;;;;;;;;;;;;;;;;;;5141487;28;19922;-58
2023/12/31 12:38:20;;;;;;;;;;;;;;;;;;5141798;28;19965;-59
2023/12/31 12:40:52;;;;;;;;;;;;;;;;;;5125589;28;19973;-58
2023/12/31 12:43:23;;;;;;;;;;;;;;;;;;5125454;28;19964;-59
2023/12/31 12:45:54;;;;;;;;;;;;;;;;;;5140158;28;19933;-58
2023/12/31 12:48:25;;;;;;;;;;;;;;;;;;5122791;28;19980;-57
2023/12/31 12:50:56;;;;;;;;;;;;;;;;;;5119339;28;19918;-58
2023/12/31 12:53:27;;;;;;;;;;;;;;;;;;5130518;28;19918;-57
2023/12/31 12:55:58;;;;;;;;;;;;;;;;;;5140747;28;19943;-57
2023/12/31 12:58:29;;;;;;;;;;;;;;;;;;5140912;28;20456;-56
2023/12/31 13:01:00;;;;;;;;;;;;;;;;;;5140477;28;20010;-56
2023/12/31 13:03:31;;;;;;;;;;;;;;;;;;5124285;28;19949;-57
2023/12/31 13:06:02;;;;;;;;;;;;;;;;;;5141008;28;20381;-57
2023/12/31 13:08:33;;;;;;;;;;;;;;;;;;5123368;28;20337;-56
2023/12/31 13:11:04;;;;;;;;;;;;;;;;;;5141832;28;20024;-57
2023/12/31 13:13:35;;;;;;;;;;;;;;;;;;5140401;28;20303;-57
2023/12/31 13:16:06;;;;;;;;;;;;;;;;;;5141591;28;19945;-57
2023/12/31 13:18:37;;;;;;;;;;;;;;;;;;5141020;28;20414;-55
2023/12/31 13:21:08;;;;;;;;;;;;;;;;;;5142250;28;20382;-57
2023/12/31 13:23:39;;;;;;;;;;;;;;;;;;5145029;28;19929;-57
2023/12/31 13:26:10;;;;;;;;;;;;;;;;;;5145009;28;19929;-57
2023/12/31 13:28:41;;;;;;;;;;;;;;;;;;5144516;28;20286;-56
2023/12/31 13:31:13;;;;;;;;;;;;;;;;;;5144961;28;19969;-57
2023/12/31 13:33:44;;;;;;;;;;;;;;;;;;5144413;28;19944;-57
2023/12/31 13:36:15;;;;;;;;;;;;;;;;;;5128798;28;19918;-58
2023/12/31 13:38:46;;;;;;;;;;;;;;;;;;5144337;28;19922;-58
2023/12/31 13:41:17;;;;;;;;;;;;;;;;;;5145114;28;19928;-58
2023/12/31 13:43:48;;;;;;;;;;;;;;;;;;5144340;28;19922;-57
2023/12/31 13:46:19;;;;;;;;;;;;;;;;;;5140772;28;20001;-56
2023/12/31 13:48:50;;;;;;;;;;;;;;;;;;5141445;28;19923;-56
2023/12/31 13:51:22;;;;;;;;;;;;;;;;;;5144684;28;19980;-57
2023/12/31 13:53:53;;;;;;;;;;;;;;;;;;5144299;28;19926;-56
2023/12/31 13:56:24;;;;;;;;;;;;;;;;;;5141037;28;19944;-58
2023/12/31 13:58:55;;;;;;;;;;;;;;;;;;5138955;28;19945;-57
2023/12/31 14:01:26;;;;;;;;;;;;;;;;;;5142690;28;19918;-57
2023/12/31 14:03:57;;;;;;;;;;;;;;;;;;5144094;28;19926;-57
2023/12/31 14:06:28;;;;;;;;;;;;;;;;;;5143572;28;19933;-57
2023/12/31 14:08:59;;;;;;;;;;;;;;;;;;5143459;28;19925;-57
2023/12/31 14:11:30;;;;;;;;;;;;;;;;;;5144621;28;20321;-57
2023/12/31 14:14:01;;;;;;;;;;;;;;;;;;5144525;28;19944;-56
2023/12/31 14:16:32;;;;;;;;;;;;;;;;;;5143982;28;19934;-58
2023/12/31 14:19:04;;;;;;;;;;;;;;;;;;5127591;28;19926;-58
2023/12/31 14:21:35;;;;;;;;;;;;;;;;;;5124159;29;20282;-59
2023/12/31 14:24:06;;;;;;;;;;;;;;;;;;5148605;28;19922;-57
2023/12/31 14:26:39;;;;;;;;;;;;;;;;;;5146254;28;20326;-57
2023/12/31 14:29:10;;;;;;;;;;;;;;;;;;5147758;28;20372;-57
2023/12/31 14:31:41;;;;;;;;;;;;;;;;;;5143569;28;20000;-56
2023/12/31 14:34:13;;;;;;;;;;;;;;;;;;5126885;28;20372;-57
2023/12/31 14:36:44;;;;;;;;;;;;;;;;;;5144423;28;19922;-56
2023/12/31 14:39:18;;;;;;;;;;;;;;;;;;5134055;28;20268;-57
2023/12/31 14:41:49;;;;;;;;;;;;;;;;;;5128298;28;20356;-56
2023/12/31 14:44:20;;;;;;;;;;;;;;;;;;5144181;28;19922;-57
2023/12/31 14:46:51;;;;;;;;;;;;;;;;;;5144518;28;20515;-56
2023/12/31 14:49:22;;;;;;;;;;;;;;;;;;5155948;28;19982;-58
2023/12/31 14:51:53;;;;;;;;;;;;;;;;;;5144201;28;19925;-57
2023/12/31 14:54:24;;;;;;;;;;;;;;;;;;5143948;28;19925;-58
2023/12/31 14:56:55;;;;;;;;;;;;;;;;;;5148950;28;20373;-58
2023/12/31 14:59:26;;;;;;;;;;;;;;;;;;5127710;28;19918;-57
2023/12/31 15:01:58;;;;;;;;;;;;;;;;;;5128043;28;19941;-58
2023/12/31 15:04:29;;;;;;;;;;;;;;;;;;5143717;28;20289;-57
2023/12/31 15:07:00;;;;;;;;;;;;;;;;;;5146318;28;20378;-57
2023/12/31 15:09:31;;;;;;;;;;;;;;;;;;5144097;28;19918;-57
2023/12/31 15:12:02;;;;;;;;;;;;;;;;;;5143794;28;19980;-57
2023/12/31 15:14:33;;;;;;;;;;;;;;;;;;5125451;28;20306;-57
2023/12/31 15:17:04;;;;;;;;;;;;;;;;;;5155652;28;19921;-56
2023/12/31 15:19:35;;;;;;;;;;;;;;;;;;5144436;28;20381;-57
2023/12/31 15:22:06;;;;;;;;;;;;;;;;;;5127730;28;20302;-57
2023/12/31 15:24:37;;;;;;;;;;;;;;;;;;5143281;28;19929;-56
2023/12/31 15:27:08;;;;;;;;;;;;;;;;;;5141305;28;19977;-57
2023/12/31 15:29:39;;;;;;;;;;;;;;;;;;5143320;28;19918;-56
2023/12/31 15:32:10;;;;;;;;;;;;;;;;;;5143305;28;19922;-57
2023/12/31 15:34:41;;;;;;;;;;;;;;;;;;5143425;28;19922;-57
2023/12/31 15:37:12;;;;;;;;;;;;;;;;;;5124243;28;19922;-57
2023/12/31 15:39:43;;;;;;;;;;;;;;;;;;5135286;28;19984;-57
2023/12/31 15:42:14;;;;;;;;;;;;;;;;;;5148140;28;20008;-57
2023/12/31 15:44:47;;;;;;;;;;;;;;;;;;5142907;28;20024;-57
2023/12/31 15:47:18;;;;;;;;;;;;;;;;;;5143086;28;20037;-57
2023/12/31 15:49:49;;;;;;;;;;;;;;;;;;5131175;28;20314;-57
2023/12/31 15:52:20;;;;;;;;;;;;;;;;;;5154317;28;19972;-56
2023/12/31 15:54:51;;;;;;;;;;;;;;;;;;5140370;28;19918;-57
2023/12/31 15:57:22;;;;;;;;;;;;;;;;;;5141277;28;19925;-57
2023/12/31 15:59:54;;;;;;;;;;;;;;;;;;5126924;28;19918;-56
2023/12/31 16:02:25;;;;;;;;;;;;;;;;;;5142717;28;19918;-57
2023/12/31 16:04:56;;;;;;;;;;;;;;;;;;5122578;28;19930;-57
2023/12/31 16:07:27;;;;;;;;;;;;;;;;;;5138233;28;19922;-57
2023/12/31 16:09:58;;;;;;;;;;;;;;;;;;5130038;28;20445;-58
2023/12/31 16:12:29;;;;;;;;;;;;;;;;;;5145491;28;20205;-58
2023/12/31 16:15:00;;;;;;;;;;;;;;;;;;5148812;28;20348;-58
2023/12/31 16:17:31;;;;;;;;;;;;;;;;;;5141998;28;20017;-57
2023/12/31 16:20:02;;;;;;;;;;;;;;;;;;5126397;28;19918;-59
2023/12/31 16:22:33;;;;;;;;;;;;;;;;;;5129133;28;19929;-58
2023/12/31 16:25:05;;;;;;;;;;;;;;;;;;5141933;28;19984;-59
2023/12/31 16:27:36;;;;;;;;;;;;;;;;;;5142276;28;19918;-58
2023/12/31 16:30:07;;;;;;;;;;;;;;;;;;5127104;28;19940;-57
2023/12/31 16:32:40;;;;;;;;;;;;;;;;;;5143533;28;19925;-57
2023/12/31 16:35:11;;;;;;;;;;;;;;;;;;5142096;28;19929;-58
2023/12/31 16:37:42;;;;;;;;;;;;;;;;;;5151046;28;19925;-58
2023/12/31 16:40:13;;;;;;;;;;;;;;;;;;5126022;28;20293;-58
2023/12/31 16:42:45;;;;;;;;;;;;;;;;;;5126955;28;20017;-58
2023/12/31 16:45:16;;;;;;;;;;;;;;;;;;5125796;28;19922;-58
2023/12/31 16:47:47;;;;;;;;;;;;;;;;;;5125821;28;19925;-59
2023/12/31 16:50:18;;;;;;;;;;;;;;;;;;5141991;28;20308;-58
2023/12/31 16:52:49;;;;;;;;;;;;;;;;;;5142002;28;19918;-58
2023/12/31 16:55:20;;;;;;;;;;;;;;;;;;5141561;28;19969;-59
2023/12/31 16:57:51;;;;;;;;;;;;;;;;;;5141302;28;19930;-58
2023/12/31 17:00:22;;;;;;;;;;;;;;;;;;5125165;28;19956;-58
2023/12/31 17:02:53;;;;;;;;;;;;;;;;;;5140362;28;19930;-59
2023/12/31 17:05:24;;;;;;;;;;;;;;;;;;5125788;28;19926;-58
2023/12/31 17:07:55;;;;;;;;;;;;;;;;;;5133119;28;19921;-58
2023/12/31 17:10:26;;;;;;;;;;;;;;;;;;5125862;28;20352;-57
2023/12/31 17:12:57;;;;;;;;;;;;;;;;;;5144898;28;19975;-58